Aviation Digital Data Service (ADDS)

Output produced by METARs form (0703 UTC 24 March 2019)
found at http://www.aviationweather.gov/metar/data/
 
EPZG 240700Z VRB01KT 8000 FEW039 06/04 Q1027
TAF EPZG 240530Z 2406/2415 VRB02KT 1100 BR NSC 
     BECMG 2406/2409 CAVOK
       
EPKK 240700Z 32005KT 300V360 9999 SCT018 BKN050 07/03 Q1025
TAF EPKK 240530Z 2406/2506 33010KT 3000 BR BKN012 OVC016 
     BECMG 2406/2409 9999 BKN020 
     BECMG 2409/2411 VRB02KT 
     BECMG 2418/2421 4000 BR BKN013 OVC030 
     TEMPO 2421/2506 2500 RA BR BKN007 OVC013
       
EPSC 240700Z 28003KT 230V310 CAVOK 03/02 Q1027
TAF EPSC 240530Z 2406/2506 VRB04KT CAVOK 
     BECMG 2421/2423 22010KT 
     PROB40 2504/2506 4000 RA BR BKN005
       
EPRZ 240700Z 27006KT 9999 BKN016 08/04 Q1024
TAF EPRZ 240530Z 2406/2506 28007KT 7000 OVC030 
     BECMG 2406/2408 34010KT 
     TEMPO 2406/2409 BKN009 OVC018 
     BECMG 2414/2417 VRB02KT 
     BECMG 2421/2424 4000 BR BKN013 OVC030 
     TEMPO 2500/2506 2500 BR BKN007 OVC014
       
TAF EPKS 240500Z 2406/2415 29005KT 3000 BCFG BR NSC 
     BECMG 2406/2408 CAVOK
       
EPPO 240700Z 30004KT CAVOK 06/03 Q1027
TAF AMD EPPO 240540Z 2406/2506 29003KT 0300 FG NSC 
     BECMG 2406/2409 CAVOK
       
EPLL 240700Z 27004KT 230V300 6000 SCT003 BKN005 04/03 Q1026
TAF EPLL 240530Z 2406/2506 30008KT CAVOK 
     PROB40 
     TEMPO 2406/2407 2800 BR BKN003 OVC005
       
EPWA 240700Z 30007KT 270V330 9999 FEW013 06/03 Q1024 NOSIG
TAF EPWA 240530Z 2406/2506 31010KT CAVOK 
     BECMG 2416/2419 VRB02KT
       
EPKT 240700Z 34008KT 9999 BKN010 05/02 Q1026
TAF EPKT 240530Z 2406/2506 34006KT 9999 OVC008 
     BECMG 2406/2409 BKN020 
     BECMG 2418/2421 4000 BR BKN013 OVC020 
     PROB40 
     TEMPO 2421/2506 2000 BR BKN008 OVC014
       
EPGD 240700Z 28014KT 9999 FEW013 04/01 Q1024
TAF EPGD 240530Z 2406/2506 30012KT CAVOK 
     BECMG 2418/2420 24008KT
       
EPWR 240700Z 06003KT 350V100 9999 FEW019 BKN032 07/03 Q1027
TAF EPWR 240530Z 2406/2506 VRB02KT 9999 BKN030 
     TEMPO 2421/2424 -RA BKN012 
     BECMG 2503/2506 27010KT
       
TAF EPSN 240500Z 2406/2415 28006KT CAVOK 
     PROB40 2410/2415 SCT030
       
EPBY 240700Z 30010KT CAVOK 05/01 Q1026
TAF EPBY 240530Z 2406/2506 29008KT CAVOK 
     BECMG 2419/2421 23005KT
       
TAF EPSY 232030Z 2321/2406 33010KT CAVOK